INFORMACIÓN METAR y TAF
METAR FOR EFIV
ADDS - METARS form results

(2031 UTC 28 January 2020)
Data provider http://aviationweather.gov/metar/data/
 
METAR text: EFIV 282020Z AUTO VRB01KT CAVOK M30/M34 Q1011
Conditions at: EFIV (IVALO , FI) observed 2020 UTC 28 January 2020
Temperature: -30.0°C (-22°F)
Dewpoint: -34.0°C (-29°F) [RH = 68%]
Pressure (altimeter): 29.85 inches Hg (1011.0 mb)
Winds: variable direction winds at 1 MPH (1 knots; 0.5 m/s)
Visibility: 6 or more miles (10+ km)
Ceiling: ceiling and visibility are OK
Clouds: unknown
Weather: no significant weather observed at this time

METAR text: EFIV 281950Z AUTO VRB01KT CAVOK M31/M34 Q1011
Conditions at: EFIV (IVALO , FI) observed 1950 UTC 28 January 2020
Temperature: -31.0°C (-24°F)
Dewpoint: -34.0°C (-29°F) [RH = 75%]
Pressure (altimeter): 29.85 inches Hg (1011.0 mb)
Winds: variable direction winds at 1 MPH (1 knots; 0.5 m/s)
Visibility: 6 or more miles (10+ km)
Ceiling: ceiling and visibility are OK
Clouds: unknown
Weather: no significant weather observed at this time

Forecast for: EFIV (IVALO , FI)
Text: TAF EFIV 281725Z 2818/2822 06003KT 9999 FEW002
Forecast period: 1800 to 2200 UTC 28 January 2020
Forecast type: FROM: standard forecast or significant change
Winds: from the ENE (60 degrees) at 3 MPH (3 knots; 1.5 m/s)
Visibility: 6 or more miles 10+ km)
Ceiling: at least 12,000 feet AGL
Clouds: few clouds at 200 feet AGL
Weather: no significant weather forecast for this period
Text: TEMPO 2818/2822 2000 BR BKN002
Forecast period: 1800 to 2200 UTC 28 January 2020
Forecast type: TEMPORARY: The following changes expected for less than half the time period
Visibility: 1.24 miles (2.00 km)
Ceiling: 200 feet AGL
Clouds: broken clouds at 200 feet AGL
Weather: BR  (mist)

 MAPA DE AEROPUERTO

 INFORMACIÓN DE PISTA
Pista 04 Longitud 8199 ft Ancho 148 ft
Elevación 480 ft Umbral desplazado 0 ft Rumbo de pista 47
Pista 22 Longitud 8199 ft Ancho 148 ft
Elevación 463 ft Umbral desplazado 0 ft Rumbo de pista 227
Pista 08 Longitud 2625 ft Ancho 148 ft
Elevación 475 ft Umbral desplazado 0 ft Rumbo de pista 92
Pista 26 Longitud 2625 ft Ancho 148 ft
Elevación 468 ft Umbral desplazado 0 ft Rumbo de pista 272

 FRECUANCIAS DEL AEROPUERTO
Tipo ATIS Nombre ATIS Frecuencia 123.2 MHZ
Tipo TWR Nombre TWR Frecuencia 118 MHZ

 RADIO AYUDAS DEL AEROPUERTO
Tipo NDB Nombre Akujarvi Frecuencia 432 KHZ



Powered by Virtual Airlines Manager [v2.6.2]